Airfield :
LOGIN :

Register | Disclaimer

   EN    FR    IT 

 










Legend :    VFR   Marginal VFR   IFR   Intensive IFR   Very Intensive IFR
Visi :
Ceiling :
>= 8 km
>= 3000ft
5 to 8 km
1000 to 3000 ft
1500m to 5 km
500 to 1000 ft
800 to 1500m
200 to 500 ft
< 800m
< 200 ft
Symbols :   Thunderstorms  Fog  Heavy snow  Heavy precipitations  Wind > 20 kt
SIGMETs :     Misc.  Thunderstorms  Icing  Turbulence  Mountain Waves  Volcanic Ashes







- Airport Elevation : 416 ft
- IATA code : OVD


LEAS - Asturias

CURRENT METAR :
  • 280030Z 00000KT 2500 BR OVC004 15/15 Q1014 TEMPO 0800 BCFG

EXPIRED METARs :
  • 280000Z 00000KT 2000 BR BKN003 15/15 Q1014 TEMPO 0800 BCFG
  • 272330Z 00000KT 2000 BR BKN002 15/15 Q1014 TEMPO 0800 BCFG
  • 272300Z VRB01KT 2000 BR BKN002 15/15 Q1015 TEMPO 0800 BCFG
  • 272230Z VRB02KT 0600 R29/1800N R11/1800U FG VV001 15/15 Q1014 TEMPO 0800 BCFG

TAF TAF LEAS
Valid from the 27 at 21:00 until the 28 at 21:00 UTC


272000Z 2721/2821 VRB03KT 3000 BR BKN008 TX20/2815Z TN13/2804Z
TEMPO 2721/2821 1400 BCFG BKN004
PROB40
TEMPO 2721/2810 0350 FG VV001
PROB30
TEMPO 2804/2810 0150 -DZRA FG
PROB30
TEMPO 2721/2812 6000 NSW SCT010
PROB30
TEMPO 2804/2807 -SHRA TS SCT035CB
BECMG 2805/2808 28010KT
PROB40
TEMPO 2811/2821 34012KT 9000 SHRA TS SCT030CB
No reported NOTAMs for that airfield.
1 SIGMET reported for the Madrid FIR (LECM) :
 
Embedded thunderstorms
LECM SIGMET 1 VALID 280100/280400 LEVA
LECM MADRID FIR/UIR EMBD TS FCST N OF LINE N4230 W007 - N4210 W00410 TOP FL380 MOV N 10KT WKN=



MET'MAP, your aeronautical weather chart ! - Copyright ORBIFLY December 2007 - Disclaimer

ORBIFLY MET'MAP TEAM :

Programming & Development : Alexandra Zaïnal
Concept & Development : Baudouin d'Aumeries
Co-Development & Prog : Marc-Olivier Méhu
Technical & hardware support : Manuel Goepfert

Contact : metmap@orbifly.com




SOURCES & CREDITS :

   NOAA